• Join FlightAware (Why Join?)
  • Login
  • US Flag 
03:42AM EST


 

Airport Tracker/Info


-or-


 

Live Flight TrackerFlight Track Log ✈ N6GD ✈ 06-Jul-2014 ✈ KPIE - KPDK

Flight Track Log - Related Links

Times and Time Zones

All times are in EDT time to prevent confusion due to time zone crossing. See the N6GD flight status page for this flight to view local times or setup timezone preferences in your user account.

Time Position Orientation Groundspeed Altitude Reporting Facility
EDT Latitude Longitude Course Direction KTS MPH feet Rate Location/Type
02:26PM 27.9167 -82.6833 344° North 193 222 600  Level Tampa TRACON
02:27PM 27.9667 -82.7000 344° North 206 237 2,200 2,040 Climbing Tampa TRACON
02:29PM 28.0997 -82.6831 North 244 281 6,200 2,220 Climbing Jacksonville Center
02:30PM 28.1789 -82.6736 North 263 303 8,500 2,100 Climbing Jacksonville Center
02:31PM 28.2625 -82.6592 North 282 325 10,500 1,860 Climbing Jacksonville Center
02:32PM 28.3481 -82.6708 353° North 292 336 12,300 1,680 Climbing Jacksonville Center
02:33PM 28.4356 -82.6989 344° North 308 354 13,900 1,560 Climbing Jacksonville Center
02:34PM 28.5317 -82.7272 345° North 330 380 15,500 1,740 Climbing Jacksonville Center
02:35PM 28.6256 -82.7553 345° North 346 398 17,400 1,740 Climbing Jacksonville Center
02:37PM 28.8239 -82.8144 North 361 415 20,800 1,620 Climbing Jacksonville Center
02:38PM 28.9283 -82.8475 345° North 367 422 22,300 1,380 Climbing Jacksonville Center
02:39PM 29.0369 -82.8806 345° North 385 443 23,600 1,320 Climbing Jacksonville Center
02:40PM 29.1456 -82.9117 346° North 391 450 25,000 1,500 Climbing Jacksonville Center
02:41PM 29.2561 -82.9450 345° North 401 461 26,600 1,560 Climbing Jacksonville Center
02:42PM 29.3667 -82.9808 344° North 401 461 28,200 1,620 Climbing Jacksonville Center
02:43PM 29.4772 -83.0119 346° North 401 461 29,900 1,620 Climbing Jacksonville Center
02:44PM 29.5919 -83.0383 349° North 407 468 31,500 1,560 Climbing Jacksonville Center
02:45PM 29.7069 -83.0217 North 407 468 33,100 960 Climbing Jacksonville Center
02:47PM 29.8714 -82.9750 14° North 421 484 34,000 420 Climbing Miami Center
02:48PM 30.0578 -82.9236 13° North 449 517 34,500 360 Climbing Jacksonville Center
02:49PM 30.1872 -82.8878 13° North 466 536 35,000 240 Climbing Jacksonville Center
02:50PM 30.3186 -82.8492 14° North 476 548 35,000  Level Jacksonville Center
02:51PM 30.4503 -82.8131 13° North 476 548 35,000  Level Jacksonville Center
02:52PM 30.5775 -82.7792 13° North 476 548 35,000  Level Jacksonville Center
02:53PM 30.7092 -82.7428 13° North 471 542 35,000  Level Jacksonville Center
02:54PM 30.8406 -82.7064 13° North 471 542 35,000  Level Jacksonville Center
02:55PM 30.9742 -82.6697 13° North 471 542 35,000  Level Jacksonville Center
02:56PM 31.1056 -82.6306 14° North 471 542 35,000 -300 Level Jacksonville Center
02:57PM 31.2392 -82.5986 12° North 477 549 34,400 -1,020 Descending Jacksonville Center
02:58PM 31.3600 -82.5008 35° Northeast 464 534 33,000 -720 Descending Jacksonville Center
02:59PM 31.4536 -82.3933 44° Northeast 464 534 33,000  Level Jacksonville Center
03:00PM 31.5450 -82.3050 39° Northeast 465 535 33,000  Level Jacksonville Center
03:03PM 31.8733 -82.3906 348° North 486 559 33,000  Level Atlanta Center
03:04PM 31.9911 -82.4667 331° Northwest 481 554 33,000  Level Atlanta Center
03:05PM 32.1047 -82.5383 332° Northwest 469 540 33,000  Level Atlanta Center
03:06PM 32.2261 -82.5656 349° North 445 512 33,000  Level Atlanta Center
03:07PM 32.3369 -82.5761 355° North 437 503 33,000 -960 Level Atlanta Center
03:09PM 32.5769 -82.5819 359° North 427 491 30,200 -1,620 Descending Atlanta Center
03:10PM 32.6919 -82.5900 357° North 422 486 28,300 -1,920 Descending Atlanta Center
03:12PM 32.8767 -82.6858 336° Northwest 360 414 24,600 -1,920 Descending Atlanta Center
03:13PM 32.9322 -82.7914 302° West 354 407 22,600 -2,280 Descending Atlanta Center
03:14PM 32.9853 -82.8947 301° West 360 414 20,100 -2,460 Descending Atlanta Center
03:15PM 33.0425 -83.0006 303° West 373 429 17,700 -1,860 Descending Atlanta Center
03:16PM 33.0978 -83.1089 301° West 379 436 16,400 -1,200 Descending Atlanta Center
03:17PM 33.1528 -83.2100 303° West 374 430 15,300 -1,020 Descending Atlanta Center
03:18PM 33.2056 -83.3114 302° West 369 425 14,400 -960 Descending Atlanta Center
03:19PM 33.2561 -83.4153 300° West 364 419 13,400 -960 Descending Atlanta Center
03:20PM 33.3067 -83.5119 302° West 352 405 12,500 -1,020 Descending Atlanta Center
03:21PM 33.3531 -83.6036 301° West 347 399 11,400 -600 Descending Atlanta Center
03:23PM 33.4725 -83.7400 316° Northwest 306 352 10,700 -960 Descending Atlanta Center
03:24PM 33.5436 -83.7869 331° Northwest 300 345 8,600 -1,320 Descending Atlanta Center
03:25PM 33.6103 -83.8217 337° Northwest 278 320 8,100 -1,140 Descending Atlanta Center
03:26PM 33.6500 -83.8817 309° West 247 284 6,400 -1,620 Descending Atlanta Center
03:27PM 33.6794 -83.9489 298° West 234 269 4,900 -1,500 Descending Atlanta Center
03:28PM 33.7108 -84.0114 301° West 223 257 3,400 -960 Descending Atlanta Center
03:29PM 33.7461 -84.0689 306° West 218 251 3,000 -240 Descending Atlanta Center
03:30PM 33.7756 -84.1289 301° West 213 245 3,000  Level Atlanta Center
03:31PM 33.8000 -84.2000 292° West 209 241 3,000 -360 Level Atlanta TRACON
03:32PM 33.8167 -84.2667 287° West 189 217 2,300 -720 Descending Atlanta TRACON
03:33PM 33.8333 -84.3167 292° West 149 171 1,600 -720 Descending Atlanta TRACON
03:35PM 33.8667 -84.3000 301° West  Level FlightAware Approximate
03:42PM 33.8756 -84.3020 350° North  Level Estimated